createdAt,value
2018-07-05T00:00:04.023Z,15.02
2018-07-05T00:01:03.990Z,14.99
2018-07-05T00:02:03.958Z,14.95
2018-07-05T00:03:03.939Z,15.03
2018-07-05T00:04:03.883Z,14.99
2018-07-05T00:05:03.841Z,14.96
2018-07-05T00:06:03.814Z,14.96
2018-07-05T00:07:03.789Z,14.94
2018-07-05T00:08:03.731Z,14.98
2018-07-05T00:09:03.695Z,15.01
2018-07-05T00:10:03.655Z,15.06
2018-07-05T00:11:03.644Z,15.07
2018-07-05T00:12:03.595Z,15.13
2018-07-05T00:13:03.564Z,15.19
2018-07-05T00:14:03.522Z,15.14
2018-07-05T00:15:03.491Z,15.23
2018-07-05T00:16:03.464Z,15.23
2018-07-05T00:17:03.412Z,15.23
2018-07-05T00:18:03.403Z,15.14
2018-07-05T00:19:03.365Z,15.19
2018-07-05T00:20:03.302Z,15.19
2018-07-05T00:21:03.286Z,15.25
2018-07-05T00:22:03.247Z,15.11
2018-07-05T00:23:03.230Z,15.14
2018-07-05T00:24:03.219Z,15.20
2018-07-05T00:25:03.135Z,15.23
2018-07-05T00:26:03.118Z,15.23
2018-07-05T00:27:03.085Z,15.16
2018-07-05T00:28:03.037Z,15.17
2018-07-05T00:29:02.991Z,15.16
2018-07-05T00:30:02.985Z,15.28
2018-07-05T00:31:02.936Z,15.25
2018-07-05T00:32:02.895Z,15.36
2018-07-05T00:33:02.856Z,15.50
2018-07-05T00:34:02.859Z,15.59
2018-07-05T00:35:02.788Z,15.65
2018-07-05T00:36:02.808Z,15.59
2018-07-05T00:37:02.736Z,15.62
2018-07-05T00:38:02.721Z,15.50
2018-07-05T00:39:02.657Z,15.54
2018-07-05T00:40:02.624Z,15.51
2018-07-05T00:41:02.601Z,15.44
2018-07-05T00:42:02.562Z,15.43
2018-07-05T00:43:02.550Z,15.35
2018-07-05T00:44:02.477Z,15.34
2018-07-05T00:45:02.453Z,15.23
2018-07-05T00:46:02.432Z,15.13
2018-07-05T00:47:02.369Z,15.02
2018-07-05T00:48:02.363Z,14.99
2018-07-05T00:49:02.352Z,15.02
2018-07-05T00:50:02.280Z,14.99
2018-07-05T00:51:02.237Z,14.95
2018-07-05T00:52:02.203Z,14.98
2018-07-05T00:53:02.186Z,14.99
2018-07-05T00:54:02.167Z,14.98
2018-07-05T00:55:02.120Z,15.01
2018-07-05T00:56:02.073Z,15.03
2018-07-05T00:57:02.032Z,15.03
2018-07-05T00:58:01.991Z,15.01
2018-07-05T00:59:01.964Z,15.01
2018-07-05T01:00:01.967Z,14.75
2018-07-05T01:01:01.894Z,14.75
2018-07-05T01:02:01.854Z,14.69
2018-07-05T01:03:01.835Z,14.75
2018-07-05T01:04:01.789Z,14.80
2018-07-05T01:05:01.766Z,14.91
2018-07-05T01:06:01.719Z,14.80
2018-07-05T01:07:01.693Z,14.69
2018-07-05T01:08:01.642Z,14.70
2018-07-05T01:09:01.603Z,14.68
2018-07-05T01:10:01.584Z,14.61
2018-07-05T01:11:01.540Z,14.54
2018-07-05T01:12:01.516Z,14.51
2018-07-05T01:13:01.469Z,14.42
2018-07-05T01:14:01.432Z,14.37
2018-07-05T01:15:01.416Z,14.47
2018-07-05T01:16:01.379Z,14.57
2018-07-05T01:17:01.318Z,14.52
2018-07-05T01:18:01.953Z,14.54
2018-07-05T01:19:01.258Z,14.40
2018-07-05T01:20:01.226Z,14.32
2018-07-05T01:21:01.194Z,14.17
2018-07-05T01:22:01.164Z,14.17
2018-07-05T01:23:01.124Z,14.25
2018-07-05T01:24:01.092Z,14.09
2018-07-05T01:25:01.072Z,14.10
2018-07-05T01:26:01.042Z,14.04
2018-07-05T01:27:00.998Z,13.96
2018-07-05T01:28:00.950Z,13.87
2018-07-05T01:29:00.910Z,13.92
2018-07-05T01:30:00.871Z,13.67
2018-07-05T01:31:00.848Z,13.78
2018-07-05T01:32:00.822Z,13.57
2018-07-05T01:33:00.811Z,13.69
2018-07-05T01:34:00.736Z,13.71
2018-07-05T01:35:00.719Z,13.70
2018-07-05T01:36:00.680Z,13.63
2018-07-05T01:37:00.658Z,13.64
2018-07-05T01:38:00.602Z,13.59
2018-07-05T01:39:00.575Z,13.62
2018-07-05T01:40:00.539Z,13.66
2018-07-05T01:41:00.486Z,13.66
2018-07-05T01:42:00.440Z,13.60
2018-07-05T01:43:00.430Z,13.62
2018-07-05T01:44:00.376Z,13.59
2018-07-05T01:45:00.349Z,13.62
2018-07-05T01:46:00.306Z,13.52
2018-07-05T01:47:00.278Z,13.49
2018-07-05T01:48:00.251Z,13.48
2018-07-05T01:49:00.216Z,13.45
2018-07-05T01:50:00.188Z,13.49
2018-07-05T01:51:00.128Z,13.48
2018-07-05T01:52:00.103Z,13.48
2018-07-05T01:53:00.053Z,13.52
2018-07-05T01:54:00.046Z,13.42
2018-07-05T01:55:00.012Z,13.36
2018-07-05T01:55:59.964Z,13.32
2018-07-05T01:56:59.920Z,13.28
2018-07-05T01:57:59.888Z,13.19
2018-07-05T01:58:59.849Z,13.20
2018-07-05T01:59:59.829Z,13.22
2018-07-05T02:00:59.795Z,13.22
2018-07-05T02:01:59.758Z,13.08
2018-07-05T02:02:59.721Z,13.14
2018-07-05T02:03:59.704Z,13.19
2018-07-05T02:04:59.651Z,13.20
2018-07-05T02:05:59.598Z,13.29
2018-07-05T02:06:59.570Z,13.29
2018-07-05T02:07:59.520Z,13.36
2018-07-05T02:08:59.510Z,13.26
2018-07-05T02:09:59.476Z,13.20
2018-07-05T02:10:59.437Z,13.20
2018-07-05T02:11:59.382Z,13.19
2018-07-05T02:12:59.362Z,13.10
2018-07-05T02:13:59.313Z,13.11
2018-07-05T02:14:59.272Z,13.03
2018-07-05T02:15:59.266Z,13.01
2018-07-05T02:16:59.210Z,13.14
2018-07-05T02:17:59.170Z,13.14
2018-07-05T02:18:59.140Z,13.08
2018-07-05T02:19:59.132Z,13.17
2018-07-05T02:20:59.071Z,13.11
2018-07-05T02:21:59.065Z,13.10
2018-07-05T02:22:58.998Z,13.14
2018-07-05T02:23:58.962Z,13.10
2018-07-05T02:24:58.925Z,13.07
2018-07-05T02:25:58.888Z,13.14
2018-07-05T02:26:58.876Z,13.17
2018-07-05T02:27:58.841Z,13.00
2018-07-05T02:28:58.782Z,12.97
2018-07-05T02:29:58.745Z,13.00
2018-07-05T02:30:58.721Z,12.96
2018-07-05T02:31:58.665Z,12.95
2018-07-05T02:32:58.633Z,12.87
2018-07-05T02:33:58.601Z,12.90
2018-07-05T02:34:58.561Z,12.86
2018-07-05T02:35:58.528Z,12.82
2018-07-05T02:36:58.503Z,12.87
2018-07-05T02:37:58.456Z,12.75
2018-07-05T02:38:58.417Z,12.71
2018-07-05T02:39:58.389Z,12.64
2018-07-05T02:40:58.354Z,12.82
2018-07-05T02:41:58.327Z,12.79
2018-07-05T02:42:58.287Z,12.74
2018-07-05T02:43:58.241Z,12.86
2018-07-05T02:44:58.245Z,12.86
2018-07-05T02:45:58.176Z,12.77
2018-07-05T02:46:58.132Z,12.77
2018-07-05T02:47:58.104Z,12.72
2018-07-05T02:48:58.091Z,12.67
2018-07-05T02:49:58.031Z,12.67
2018-07-05T02:50:57.995Z,12.74
2018-07-05T02:51:57.954Z,12.62
2018-07-05T02:52:57.919Z,12.65
2018-07-05T02:53:57.877Z,12.77
2018-07-05T02:54:57.858Z,12.59
2018-07-05T02:55:57.806Z,12.56
2018-07-05T02:56:57.790Z,12.56
2018-07-05T02:57:57.740Z,12.50
2018-07-05T02:58:57.722Z,12.41
2018-07-05T02:59:57.671Z,12.68
2018-07-05T03:00:57.646Z,12.67
2018-07-05T03:01:57.588Z,12.74
2018-07-05T03:02:57.535Z,12.77
2018-07-05T03:03:57.512Z,12.64
2018-07-05T03:04:57.475Z,12.45
2018-07-05T03:05:57.439Z,12.56
2018-07-05T03:06:57.399Z,12.45
2018-07-05T03:07:57.375Z,12.39
2018-07-05T03:08:57.376Z,12.41
2018-07-05T03:09:57.288Z,12.45
2018-07-05T03:10:57.269Z,12.45
2018-07-05T03:11:57.229Z,12.38
2018-07-05T03:12:57.186Z,12.50
2018-07-05T03:13:57.158Z,12.68
2018-07-05T03:14:57.121Z,12.64
2018-07-05T03:15:57.077Z,12.68
2018-07-05T03:16:57.051Z,12.72
2018-07-05T03:17:57.036Z,12.62
2018-07-05T03:18:57.014Z,12.62
2018-07-05T03:19:56.929Z,12.62
2018-07-05T03:20:56.905Z,12.53
2018-07-05T03:21:56.872Z,12.57
2018-07-05T03:22:56.859Z,12.70
2018-07-05T03:23:56.794Z,12.67
2018-07-05T03:24:56.746Z,12.64
2018-07-05T03:25:56.719Z,12.53
2018-07-05T03:26:56.693Z,12.49
2018-07-05T03:27:56.637Z,12.65
2018-07-05T03:28:56.640Z,12.67
2018-07-05T03:29:56.612Z,12.64
2018-07-05T03:30:56.546Z,12.72
2018-07-05T03:31:56.502Z,12.79
2018-07-05T03:32:56.455Z,12.72
2018-07-05T03:33:56.424Z,12.75
2018-07-05T03:34:56.401Z,12.68
2018-07-05T03:35:56.369Z,12.65
2018-07-05T03:36:56.361Z,12.68
2018-07-05T03:37:56.291Z,12.71
2018-07-05T03:38:56.247Z,12.75
2018-07-05T03:39:56.201Z,12.74
2018-07-05T03:40:56.163Z,12.72
2018-07-05T03:41:56.143Z,12.74
2018-07-05T03:42:56.101Z,12.82
2018-07-05T03:43:56.090Z,12.77
2018-07-05T03:44:56.028Z,12.68
2018-07-05T03:45:55.982Z,12.75
2018-07-05T03:46:55.966Z,12.79
2018-07-05T03:47:55.926Z,12.75
2018-07-05T03:48:55.879Z,12.87
2018-07-05T03:49:55.843Z,12.89
2018-07-05T03:50:55.796Z,12.90
2018-07-05T03:51:55.762Z,13.00
2018-07-05T03:52:55.723Z,13.03
2018-07-05T03:53:55.750Z,13.04
2018-07-05T03:54:55.681Z,13.04
2018-07-05T03:55:55.630Z,13.10
2018-07-05T03:56:55.582Z,13.05
2018-07-05T03:57:55.562Z,13.05
2018-07-05T03:58:55.615Z,13.11
2018-07-05T03:59:55.487Z,13.15
2018-07-05T04:00:55.454Z,13.10
2018-07-05T04:01:55.424Z,13.19
2018-07-05T04:02:55.371Z,13.19
2018-07-05T04:03:55.347Z,13.23
2018-07-05T04:04:55.305Z,13.23
2018-07-05T04:05:55.304Z,13.25
2018-07-05T04:06:55.247Z,13.30
2018-07-05T04:07:55.209Z,13.44
2018-07-05T04:08:55.165Z,13.73
2018-07-05T04:09:55.265Z,14.20
2018-07-05T04:10:55.103Z,14.72
2018-07-05T04:11:55.091Z,15.16
2018-07-05T04:12:55.043Z,15.67
2018-07-05T04:13:54.989Z,15.92
2018-07-05T04:14:54.939Z,16.30
2018-07-05T04:15:55.000Z,16.49
2018-07-05T04:16:54.904Z,16.76
2018-07-05T04:17:54.882Z,16.94
2018-07-05T04:18:54.795Z,17.33
2018-07-05T04:19:54.777Z,17.46
2018-07-05T04:20:54.725Z,17.87
2018-07-05T04:21:54.704Z,17.90
2018-07-05T04:22:54.649Z,17.99
2018-07-05T04:23:54.620Z,18.27
2018-07-05T04:24:54.599Z,18.58
2018-07-05T04:25:54.570Z,18.82
2018-07-05T04:26:54.647Z,19.02
2018-07-05T04:27:54.515Z,19.08
2018-07-05T04:28:54.465Z,19.43
2018-07-05T04:29:54.436Z,19.48
2018-07-05T04:30:54.382Z,19.48
2018-07-05T04:31:54.418Z,19.55
2018-07-05T04:32:54.327Z,19.77
2018-07-05T04:33:54.349Z,19.88
2018-07-05T04:34:54.271Z,20.13
2018-07-05T04:35:54.265Z,20.33
2018-07-05T04:36:54.195Z,20.42
2018-07-05T04:37:54.150Z,20.55
2018-07-05T04:38:54.146Z,20.70
2018-07-05T04:39:54.130Z,20.82
2018-07-05T04:40:54.089Z,21.13
2018-07-05T04:41:54.061Z,21.32
2018-07-05T04:42:54.004Z,21.50
2018-07-05T04:43:53.966Z,21.67
2018-07-05T04:44:53.948Z,21.54
2018-07-05T04:45:53.896Z,21.64
2018-07-05T04:46:53.861Z,21.67
2018-07-05T04:47:53.857Z,21.88
2018-07-05T04:48:53.816Z,22.03
2018-07-05T04:49:53.759Z,22.09
2018-07-05T04:50:53.780Z,22.36
2018-07-05T04:51:53.700Z,22.55
2018-07-05T04:52:53.679Z,22.73
2018-07-05T04:53:53.662Z,22.79
2018-07-05T04:54:53.620Z,22.83
2018-07-05T04:55:53.605Z,22.52
2018-07-05T04:56:53.551Z,22.60
2018-07-05T04:57:53.515Z,22.67
2018-07-05T04:58:53.518Z,22.85
2018-07-05T04:59:53.468Z,22.92
2018-07-05T05:00:53.436Z,23.00
2018-07-05T05:01:53.402Z,23.13
2018-07-05T05:02:53.380Z,23.22
2018-07-05T05:03:53.342Z,23.28
2018-07-05T05:04:53.310Z,23.58
2018-07-05T05:05:53.308Z,23.69
2018-07-05T05:06:53.288Z,23.90
2018-07-05T05:07:53.256Z,24.20
2018-07-05T05:08:53.209Z,24.52
2018-07-05T05:09:53.171Z,24.67
2018-07-05T05:10:53.140Z,24.53
2018-07-05T05:11:53.126Z,24.52
2018-07-05T05:12:53.115Z,24.65
2018-07-05T05:13:53.067Z,24.65
2018-07-05T05:14:53.064Z,24.49
2018-07-05T05:15:53.016Z,24.69
2018-07-05T05:16:52.977Z,24.88
2018-07-05T05:17:52.964Z,25.02
2018-07-05T05:18:52.965Z,25.24
2018-07-05T05:19:52.890Z,25.21
2018-07-05T05:20:52.887Z,25.46
2018-07-05T05:21:52.837Z,25.58
2018-07-05T05:22:52.815Z,25.75
2018-07-05T05:23:52.787Z,26.10
2018-07-05T05:24:52.764Z,25.87
2018-07-05T05:25:52.716Z,25.82
2018-07-05T05:26:52.689Z,25.61
2018-07-05T05:27:52.679Z,24.99
2018-07-05T05:28:52.663Z,24.85
2018-07-05T05:29:52.611Z,24.52
2018-07-05T05:30:52.604Z,24.69
2018-07-05T05:31:52.590Z,24.67
2018-07-05T05:32:52.552Z,24.45
2018-07-05T05:33:52.549Z,24.18
2018-07-05T05:34:52.517Z,24.20
2018-07-05T05:35:52.453Z,24.67
2018-07-05T05:36:52.512Z,25.18
2018-07-05T05:37:52.429Z,25.27
2018-07-05T05:38:52.411Z,25.62
2018-07-05T05:39:52.380Z,26.02
2018-07-05T05:40:52.348Z,26.28
2018-07-05T05:41:52.336Z,26.51
2018-07-05T05:42:52.300Z,26.37
2018-07-05T05:43:52.258Z,26.25
2018-07-05T05:44:52.247Z,25.76
2018-07-05T05:45:52.262Z,25.36
2018-07-05T05:46:52.201Z,25.00
2018-07-05T05:47:52.202Z,24.69
2018-07-05T05:48:52.137Z,24.55
2018-07-05T05:49:52.115Z,23.95
2018-07-05T05:50:52.093Z,23.66
2018-07-05T05:51:52.073Z,23.25
2018-07-05T05:52:52.058Z,22.67
2018-07-05T05:53:52.016Z,22.35
2018-07-05T05:54:51.996Z,22.05
2018-07-05T05:55:51.968Z,21.88
2018-07-05T05:56:51.972Z,21.64
2018-07-05T05:57:51.915Z,21.50
2018-07-05T05:58:51.896Z,21.49
2018-07-05T05:59:51.880Z,21.43
2018-07-05T06:00:51.843Z,21.37
2018-07-05T06:01:51.889Z,21.44
2018-07-05T06:02:51.783Z,21.46
2018-07-05T06:03:51.774Z,21.54
2018-07-05T06:04:51.752Z,21.54
2018-07-05T06:05:51.719Z,21.54
2018-07-05T06:06:51.680Z,21.52
2018-07-05T06:07:51.663Z,21.61
2018-07-05T06:08:51.664Z,21.68
2018-07-05T06:09:51.629Z,21.79
2018-07-05T06:10:51.588Z,21.92
2018-07-05T06:11:51.566Z,22.05
2018-07-05T06:12:51.538Z,22.25
2018-07-05T06:13:51.502Z,22.30
2018-07-05T06:14:51.484Z,22.45
2018-07-05T06:15:51.463Z,22.47
2018-07-05T06:16:51.413Z,22.57
2018-07-05T06:17:51.386Z,22.45
2018-07-05T06:18:51.387Z,22.54
2018-07-05T06:19:51.339Z,22.77
2018-07-05T06:20:51.312Z,23.28
2018-07-05T06:21:51.287Z,24.15
2018-07-05T06:22:51.285Z,24.53
2018-07-05T06:23:51.221Z,24.62
2018-07-05T06:24:51.195Z,24.65
2018-07-05T06:25:51.175Z,24.73
2018-07-05T06:26:51.160Z,24.50
2018-07-05T06:27:51.117Z,24.53
2018-07-05T06:28:51.086Z,24.55
2018-07-05T06:29:51.049Z,24.50
2018-07-05T06:30:51.044Z,24.45
2018-07-05T06:31:51.035Z,24.67
2018-07-05T06:32:50.978Z,24.90
2018-07-05T06:33:50.989Z,25.09
2018-07-05T06:34:50.934Z,25.14
2018-07-05T06:35:50.912Z,25.14
2018-07-05T06:36:50.879Z,25.17
2018-07-05T06:37:50.850Z,25.00
2018-07-05T06:38:50.818Z,24.95
2018-07-05T06:39:50.834Z,24.85
2018-07-05T06:40:50.753Z,24.99
2018-07-05T06:41:50.742Z,24.99
2018-07-05T06:42:50.707Z,24.99
2018-07-05T06:43:50.707Z,25.02
2018-07-05T06:44:50.676Z,24.98
2018-07-05T06:45:50.634Z,25.00
2018-07-05T06:46:50.610Z,25.13
2018-07-05T06:47:50.566Z,25.17
2018-07-05T06:48:50.537Z,25.20
2018-07-05T06:49:50.505Z,25.10
2018-07-05T06:50:50.491Z,25.13
2018-07-05T06:51:50.476Z,25.10
2018-07-05T06:52:50.446Z,25.15
2018-07-05T06:53:50.404Z,25.21
2018-07-05T06:54:50.396Z,25.35
2018-07-05T06:55:50.348Z,25.46
2018-07-05T06:56:50.329Z,25.67
2018-07-05T06:57:50.301Z,25.75
2018-07-05T06:58:50.284Z,25.72
2018-07-05T06:59:50.233Z,26.09
2018-07-05T07:00:50.204Z,26.35
2018-07-05T07:01:50.178Z,26.85
2018-07-05T07:02:50.172Z,27.93
2018-07-05T07:03:50.136Z,28.85
2018-07-05T07:04:50.100Z,29.46
2018-07-05T07:05:50.077Z,29.89
2018-07-05T07:06:50.055Z,30.73
2018-07-05T07:07:50.019Z,30.77
2018-07-05T07:08:49.998Z,30.17
2018-07-05T07:09:49.985Z,30.13
2018-07-05T07:10:49.936Z,30.19
2018-07-05T07:11:49.923Z,31.06
2018-07-05T07:12:49.909Z,30.67
2018-07-05T07:13:49.882Z,30.88
2018-07-05T07:14:49.855Z,31.28
2018-07-05T07:15:49.833Z,31.13
2018-07-05T07:16:49.815Z,31.73
2018-07-05T07:17:49.785Z,31.53
2018-07-05T07:18:49.751Z,31.23
2018-07-05T07:19:49.732Z,31.50
2018-07-05T07:20:49.716Z,31.89
2018-07-05T07:21:49.704Z,32.35
2018-07-05T07:22:49.686Z,32.72
2018-07-05T07:23:49.652Z,33.28
2018-07-05T07:24:49.623Z,33.14
2018-07-05T07:25:49.604Z,32.97
2018-07-05T07:26:49.603Z,32.75
2018-07-05T07:27:49.555Z,32.88
2018-07-05T07:28:49.534Z,32.99
2018-07-05T07:29:49.510Z,32.94
2018-07-05T07:30:49.502Z,33.19
2018-07-05T07:31:49.568Z,33.15
2018-07-05T07:32:49.453Z,33.37
2018-07-05T07:33:49.447Z,33.23
2018-07-05T07:34:49.420Z,32.94
2018-07-05T07:35:49.399Z,32.85
2018-07-05T07:36:49.373Z,32.50
2018-07-05T07:37:49.357Z,32.57
2018-07-05T07:38:49.327Z,32.63
2018-07-05T07:39:49.341Z,32.48
2018-07-05T07:40:49.315Z,32.43
2018-07-05T07:41:49.275Z,32.10
2018-07-05T07:42:49.269Z,32.44
2018-07-05T07:43:49.238Z,32.56
2018-07-05T07:44:49.222Z,32.69
2018-07-05T07:45:49.256Z,32.88
2018-07-05T07:46:49.197Z,33.16
2018-07-05T07:47:49.170Z,33.34
2018-07-05T07:48:49.181Z,33.21
2018-07-05T07:49:49.168Z,33.06
2018-07-05T07:50:49.124Z,32.25
2018-07-05T07:51:49.095Z,32.55
2018-07-05T07:52:49.083Z,31.96
2018-07-05T07:53:49.058Z,31.72
2018-07-05T07:54:49.061Z,32.06
2018-07-05T07:55:49.077Z,32.69
2018-07-05T07:56:49.016Z,33.26
2018-07-05T07:57:48.993Z,33.21
2018-07-05T07:58:48.974Z,33.09
2018-07-05T07:59:48.940Z,32.93
2018-07-05T08:00:48.933Z,33.12
2018-07-05T08:01:48.964Z,33.09
2018-07-05T08:02:48.891Z,32.99
2018-07-05T08:03:48.882Z,33.18
2018-07-05T08:04:48.866Z,33.31
2018-07-05T08:05:48.873Z,33.31
2018-07-05T08:06:48.840Z,33.16
2018-07-05T08:07:48.817Z,33.60
2018-07-05T08:08:48.796Z,33.75
2018-07-05T08:09:48.780Z,32.70
2018-07-05T08:10:48.793Z,32.51
2018-07-05T08:11:48.792Z,32.88
2018-07-05T08:12:48.762Z,33.16
2018-07-05T08:13:48.722Z,32.81
2018-07-05T08:14:48.751Z,33.09
2018-07-05T08:15:48.673Z,32.88
2018-07-05T08:16:48.671Z,33.49
2018-07-05T08:17:48.656Z,33.91
2018-07-05T08:18:48.628Z,33.94
2018-07-05T08:19:48.606Z,33.93
2018-07-05T08:20:48.588Z,33.53
2018-07-05T08:21:48.607Z,33.16
2018-07-05T08:22:48.558Z,32.99
2018-07-05T08:23:48.536Z,33.21
2018-07-05T08:24:48.530Z,32.97
2018-07-05T08:25:48.516Z,33.12
2018-07-05T08:26:48.499Z,32.84
2018-07-05T08:27:48.485Z,32.92
2018-07-05T08:28:48.454Z,33.54
2018-07-05T08:29:48.460Z,34.16
2018-07-05T08:30:48.429Z,34.30
2018-07-05T08:31:48.409Z,34.28
2018-07-05T08:32:48.398Z,33.71
2018-07-05T08:33:48.372Z,33.63
2018-07-05T08:34:48.356Z,33.69
2018-07-05T08:35:48.347Z,33.87
2018-07-05T08:36:48.327Z,33.56
2018-07-05T08:37:48.344Z,33.87
2018-07-05T08:38:48.292Z,33.93
2018-07-05T08:39:48.273Z,33.54
2018-07-05T08:40:48.270Z,33.60
2018-07-05T08:41:48.282Z,33.38
2018-07-05T08:42:48.222Z,33.68
2018-07-05T08:43:48.223Z,34.06
2018-07-05T08:44:48.202Z,34.16
2018-07-05T08:45:48.181Z,34.47
2018-07-05T08:46:48.168Z,34.52
2018-07-05T08:47:48.142Z,34.65
2018-07-05T08:48:48.127Z,34.13
2018-07-05T08:49:48.119Z,33.31
2018-07-05T08:50:48.099Z,33.22
2018-07-05T08:51:48.086Z,33.38
2018-07-05T08:52:48.054Z,33.65
2018-07-05T08:53:50.682Z,33.38
2018-07-05T08:54:48.051Z,32.38
2018-07-05T08:55:48.024Z,32.79
2018-07-05T08:56:47.994Z,33.34
2018-07-05T08:57:47.984Z,33.63
2018-07-05T08:58:47.973Z,33.79
2018-07-05T08:59:47.957Z,33.61
2018-07-05T09:00:47.945Z,33.41
2018-07-05T09:01:47.918Z,33.34
2018-07-05T09:02:47.907Z,33.59
2018-07-05T09:03:47.887Z,34.21
2018-07-05T09:04:47.862Z,34.52
2018-07-05T09:05:47.855Z,34.56
2018-07-05T09:06:47.862Z,34.75
2018-07-05T09:07:47.810Z,34.87
2018-07-05T09:08:47.801Z,35.22
2018-07-05T09:09:47.784Z,35.41
2018-07-05T09:10:47.775Z,35.45
2018-07-05T09:11:47.757Z,35.78
2018-07-05T09:12:47.731Z,36.12
2018-07-05T09:13:47.716Z,35.85
2018-07-05T09:14:47.712Z,34.85
2018-07-05T09:15:47.699Z,34.80
2018-07-05T09:16:47.676Z,34.82
2018-07-05T09:17:47.874Z,34.85
2018-07-05T09:18:47.644Z,34.89
2018-07-05T09:19:47.613Z,35.07
2018-07-05T09:20:47.617Z,35.02
2018-07-05T09:21:47.575Z,35.34
2018-07-05T09:22:47.568Z,35.56
2018-07-05T09:23:47.573Z,35.84
2018-07-05T09:24:47.556Z,35.62
2018-07-05T09:25:47.529Z,35.62
2018-07-05T09:26:47.544Z,35.60
2018-07-05T09:27:47.482Z,35.50
2018-07-05T09:28:47.489Z,34.96
2018-07-05T09:29:47.448Z,35.04
2018-07-05T09:30:47.440Z,35.07
2018-07-05T09:31:47.438Z,35.18
2018-07-05T09:32:47.418Z,34.94
2018-07-05T09:33:47.394Z,34.47
2018-07-05T09:34:47.372Z,34.15
2018-07-05T09:35:47.353Z,34.13
2018-07-05T09:36:47.352Z,34.25
2018-07-05T09:37:47.335Z,34.09
2018-07-05T09:38:47.312Z,33.79
2018-07-05T09:39:47.287Z,33.91
2018-07-05T09:40:47.282Z,33.73
2018-07-05T09:41:47.270Z,33.84
2018-07-05T09:42:47.246Z,34.17
2018-07-05T09:43:47.237Z,34.17
2018-07-05T09:44:47.234Z,34.44
2018-07-05T09:45:47.205Z,34.47
2018-07-05T09:46:47.185Z,32.96
2018-07-05T09:47:47.184Z,32.55
2018-07-05T09:48:47.141Z,31.80
2018-07-05T09:49:47.130Z,30.95
2018-07-05T09:50:47.120Z,31.76
2018-07-05T09:51:47.104Z,31.91
2018-07-05T09:52:47.093Z,31.69
2018-07-05T09:53:47.088Z,32.57
2018-07-05T09:54:47.073Z,33.31
2018-07-05T09:55:47.044Z,34.00
2018-07-05T09:56:47.085Z,34.75
2018-07-05T09:57:47.081Z,35.23
2018-07-05T09:58:47.076Z,35.47
2018-07-05T09:59:46.995Z,35.37
2018-07-05T10:00:46.976Z,34.62
2018-07-05T10:01:46.946Z,35.22
2018-07-05T10:02:46.922Z,35.55
2018-07-05T10:03:46.979Z,35.48
2018-07-05T10:04:46.926Z,35.59
2018-07-05T10:05:46.925Z,35.72
2018-07-05T10:06:46.859Z,35.96
2018-07-05T10:07:46.853Z,36.54
2018-07-05T10:08:46.821Z,36.91
2018-07-05T10:09:46.800Z,37.07
2018-07-05T10:10:46.791Z,37.09
2018-07-05T10:11:46.763Z,37.00
2018-07-05T10:12:46.745Z,36.54
2018-07-05T10:13:47.074Z,36.34
2018-07-05T10:14:46.746Z,36.31
2018-07-05T10:15:46.742Z,36.34
2018-07-05T10:16:46.707Z,36.00
2018-07-05T10:17:46.660Z,35.60
2018-07-05T10:18:46.645Z,35.77
2018-07-05T10:19:46.641Z,35.56
2018-07-05T10:20:46.613Z,35.94
2018-07-05T10:21:46.593Z,36.13
2018-07-05T10:22:46.597Z,36.31
2018-07-05T10:23:46.576Z,36.69
2018-07-05T10:24:46.543Z,36.53
2018-07-05T10:25:46.541Z,36.31
2018-07-05T10:26:46.517Z,35.56
2018-07-05T10:27:46.488Z,34.81
2018-07-05T10:28:46.477Z,34.87
2018-07-05T10:29:46.454Z,35.00
2018-07-05T10:30:46.454Z,34.21
2018-07-05T10:31:46.432Z,33.78
2018-07-05T10:32:46.446Z,33.41
2018-07-05T10:33:46.411Z,33.09
2018-07-05T10:34:46.375Z,33.86
2018-07-05T10:35:46.372Z,34.44
2018-07-05T10:36:46.335Z,34.54
2018-07-05T10:37:46.328Z,35.00
2018-07-05T10:38:46.301Z,35.16
2018-07-05T10:39:46.367Z,35.77
2018-07-05T10:40:46.278Z,36.07
2018-07-05T10:41:46.252Z,36.53
2018-07-05T10:42:46.229Z,36.73
2018-07-05T10:43:46.221Z,37.00
2018-07-05T10:44:46.203Z,36.37
2018-07-05T10:45:46.190Z,35.60
2018-07-05T10:46:46.173Z,35.72
2018-07-05T10:47:46.156Z,35.85
2018-07-05T10:48:46.133Z,35.74
2018-07-05T10:49:46.111Z,34.96
2018-07-05T10:50:46.099Z,34.73
2018-07-05T10:51:46.089Z,34.62
2018-07-05T10:52:46.077Z,35.07
2018-07-05T10:53:46.044Z,34.47
2018-07-05T10:54:46.053Z,34.02
2018-07-05T10:55:46.023Z,33.44
2018-07-05T10:56:45.998Z,32.85
2018-07-05T10:57:46.001Z,32.69
2018-07-05T10:58:45.971Z,32.78
2018-07-05T10:59:45.948Z,32.67
2018-07-05T11:00:45.936Z,32.63
2018-07-05T11:01:45.913Z,32.67
2018-07-05T11:02:45.884Z,32.72
2018-07-05T11:03:45.886Z,33.18
2018-07-05T11:04:45.866Z,33.69
2018-07-05T11:05:45.831Z,33.93
2018-07-05T11:06:45.845Z,34.22
2018-07-05T11:07:45.820Z,34.10
2018-07-05T11:08:45.793Z,34.66
2018-07-05T11:09:45.805Z,34.70
2018-07-05T11:10:45.781Z,34.49
2018-07-05T11:11:45.740Z,34.81
2018-07-05T11:12:45.710Z,35.00
2018-07-05T11:13:45.709Z,35.14
2018-07-05T11:14:45.763Z,35.41
2018-07-05T11:15:45.661Z,35.84
2018-07-05T11:16:45.710Z,35.41
2018-07-05T11:17:45.666Z,34.82
2018-07-05T11:18:45.607Z,34.49
2018-07-05T11:19:45.640Z,34.02
2018-07-05T11:20:45.593Z,33.06
2018-07-05T11:21:45.572Z,32.47
2018-07-05T11:22:45.556Z,31.81
2018-07-05T11:23:45.556Z,31.65
2018-07-05T11:24:45.517Z,31.61
2018-07-05T11:25:45.495Z,31.41
2018-07-05T11:26:45.473Z,31.34
2018-07-05T11:27:45.477Z,30.95
2018-07-05T11:28:45.489Z,30.72
2018-07-05T11:29:45.432Z,30.57
2018-07-05T11:30:45.402Z,30.27
2018-07-05T11:31:45.383Z,30.16
2018-07-05T11:32:45.366Z,30.04
2018-07-05T11:33:45.356Z,30.04
2018-07-05T11:34:45.327Z,30.02
2018-07-05T11:35:45.306Z,30.08
2018-07-05T11:36:45.305Z,30.10
2018-07-05T11:37:45.275Z,30.10
2018-07-05T11:38:45.284Z,30.01
2018-07-05T11:39:45.297Z,29.97
2018-07-05T11:40:45.212Z,29.86
2018-07-05T11:41:45.211Z,29.98
2018-07-05T11:42:45.212Z,30.01
2018-07-05T11:43:45.180Z,30.05
2018-07-05T11:44:45.142Z,30.02
2018-07-05T11:45:45.132Z,30.11
2018-07-05T11:46:45.123Z,30.15
2018-07-05T11:47:45.119Z,30.08
2018-07-05T11:48:45.063Z,29.97
2018-07-05T11:49:45.040Z,29.87
2018-07-05T11:50:45.016Z,29.94
2018-07-05T11:51:44.988Z,29.80
2018-07-05T11:52:45.031Z,29.83
2018-07-05T11:53:44.990Z,29.74
2018-07-05T11:54:45.004Z,29.82
2018-07-05T11:55:45.042Z,29.76
2018-07-05T11:56:44.988Z,29.64
2018-07-05T11:57:44.891Z,29.49
2018-07-05T11:58:44.985Z,29.41
2018-07-05T11:59:45.698Z,29.23
2018-07-05T12:00:59.963Z,28.76
2018-07-05T12:02:20.440Z,28.29
2018-07-05T12:02:44.991Z,28.11
2018-07-05T12:03:47.090Z,27.65
2018-07-05T12:04:44.694Z,27.29
2018-07-05T12:05:44.769Z,26.84
2018-07-05T12:06:44.736Z,26.51
2018-07-05T12:07:44.650Z,26.07
2018-07-05T12:08:44.612Z,25.55
2018-07-05T12:09:44.596Z,25.18
2018-07-05T12:10:44.596Z,24.85
2018-07-05T12:11:44.541Z,24.65
2018-07-05T12:12:44.551Z,24.42
2018-07-05T12:13:44.543Z,24.39
2018-07-05T12:14:44.484Z,24.30
2018-07-05T12:15:44.461Z,24.20
2018-07-05T12:16:44.452Z,24.12
2018-07-05T12:17:44.402Z,24.10
2018-07-05T12:18:44.393Z,24.15
2018-07-05T12:19:44.379Z,24.20
2018-07-05T12:20:44.342Z,24.31
2018-07-05T12:21:44.299Z,24.42
2018-07-05T12:22:44.272Z,24.64
2018-07-05T12:23:44.274Z,24.95
2018-07-05T12:24:44.226Z,25.17
2018-07-05T12:25:44.241Z,25.43
2018-07-05T12:26:44.180Z,25.47
2018-07-05T12:27:44.156Z,25.65
2018-07-05T12:28:44.228Z,25.77
2018-07-05T12:29:44.101Z,25.88
2018-07-05T12:30:44.118Z,25.95
2018-07-05T12:31:44.074Z,25.85
2018-07-05T12:32:44.061Z,25.99
2018-07-05T12:33:44.026Z,25.76
2018-07-05T12:34:43.974Z,25.85
2018-07-05T12:35:43.979Z,25.75
2018-07-05T12:36:43.937Z,25.62
2018-07-05T12:37:43.895Z,25.72
2018-07-05T12:38:43.927Z,25.75
2018-07-05T12:39:43.835Z,25.72
2018-07-05T12:40:43.803Z,25.50
2018-07-05T12:41:43.825Z,25.39
2018-07-05T12:42:43.774Z,25.36
2018-07-05T12:43:43.723Z,25.24
2018-07-05T12:44:43.697Z,25.15
2018-07-05T12:45:43.697Z,25.00
2018-07-05T12:46:43.652Z,24.84
2018-07-05T12:47:43.629Z,25.00
2018-07-05T12:48:44.303Z,25.08
2018-07-05T12:49:43.635Z,24.98
2018-07-05T12:50:43.686Z,24.90
2018-07-05T12:51:43.541Z,24.85